Oued Ziz — CNA3598 — position and weather

sailwx.info

Track history (hours):
 
Tides and Currents Weather Stations Pressure Air Temp Water Temp Dewpoint Dewpoint Depression Visibility Wind Speed Wind Dir Waves Ship Positions

Oued Ziz

Last reported at 2018-Apr-27 02:59 UTC. Time now 2018-Apr-27 05:06 UTC.
Position N 43°06' E 007°02'.

Length 115 m; draft 5.3 m.

Type: Cargo ship. MMSI: 242006000.

Date/timePositionNaut miles runAvg speedWind from/ knotsBaromVisibWave heightAir tempDewpointWater temp
2018-Apr-27 02:59N 43°06' E 007°02'613.5
2018-Apr-27 02:30N 43°08' E 007°10'1013.4
2018-Apr-27 01:45N 43°11' E 007°23'413.3
2018-Apr-27 01:27N 43°12' E 007°28'1013.3
2018-Apr-27 00:43N 43°15' E 007°41'3113.0
2018-Apr-26 22:22N 43°28' E 008°19'513.2
2018-Apr-26 22:00N 43°30' E 008°26'813.4
2018-Apr-26 21:27N 43°33' E 008°35'613.5
2018-Apr-26 21:00N 43°35' E 008°43'713.5
2018-Apr-26 20:30N 43°38' E 008°51'713.3
2018-Apr-26 20:00N 43°41' E 008°59'713.1
2018-Apr-26 19:30N 43°44' E 009°07'612.7
2018-Apr-26 19:00N 43°47' E 009°15'612.6
2018-Apr-26 18:30N 43°50' E 009°23'612.6
2018-Apr-26 18:00N 43°52' E 009°31'612.6
2018-Apr-26 17:30N 43°55' E 009°38'713.0
2018-Apr-26 17:00N 43°58' E 009°46'611.2
2018-Apr-26 16:30N 44°02' E 009°52'5 9.0
2018-Apr-26 16:00N 44°07' E 009°51'0 0.1
2018-Apr-26 15:30N 44°07' E 009°51'0 0.0
2018-Apr-26 14:57N 44°07' E 009°51'0 0.0
2018-Apr-26 14:27N 44°07' E 009°51'0 0.0
2018-Apr-26 14:00N 44°07' E 009°51'0 0.0
2018-Apr-26 13:27N 44°07' E 009°51'0 0.0
2018-Apr-26 13:00N 44°07' E 009°51'0 0.0
2018-Apr-26 12:30N 44°07' E 009°51'0 0.0
2018-Apr-26 12:00N 44°07' E 009°51'0 0.0
2018-Apr-26 11:30N 44°07' E 009°51'0 0.0
2018-Apr-26 11:00N 44°07' E 009°51'0 0.0
2018-Apr-26 10:30N 44°07' E 009°51'0 0.0
2018-Apr-26 10:00N 44°07' E 009°51'0 0.0
2018-Apr-26 09:30N 44°07' E 009°51'0 0.1
2018-Apr-26 09:00N 44°06' E 009°51'3 6.0
2018-Apr-26 08:30N 44°04' E 009°52'510.6
2018-Apr-26 08:00N 43°59' E 009°56'612.4
2018-Apr-26 07:30N 43°55' E 009°51'612.5
2018-Apr-26 07:00N 43°50' E 009°45'612.9
2018-Apr-26 06:30N 43°45' E 009°39'613.0
2018-Apr-26 06:00N 43°40' E 009°33'713.0
2018-Apr-26 05:30N 43°35' E 009°27'613.1
2018-Apr-26 05:00N 43°30' E 009°21'713.2
2018-Apr-26 04:30N 43°25' E 009°16'713.1
2018-Apr-26 04:00N 43°20' E 009°10'713.4
2018-Apr-26 03:30N 43°15' E 009°04'  
2018-Apr-20 08:52N 36°14' E 013°31'412.2
2018-Apr-20 08:30N 36°11' E 013°35'713.1
2018-Apr-20 08:00N 36°07' E 013°42'612.4
2018-Apr-20 07:30N 36°04' E 013°48'712.7
2018-Apr-20 06:59N 36°00' E 013°55'612.6
2018-Apr-20 06:30N 35°57' E 014°01'612.6
2018-Apr-20 06:00N 35°53' E 014°08'712.9
2018-Apr-20 05:28N 35°49' E 014°15'511.9
2018-Apr-20 05:00N 35°46' E 014°20'510.9
2018-Apr-20 04:30N 35°45' E 014°27'7 0.2
2018-Apr-18 23:16N 35°49' E 014°33'2 6.7
2018-Apr-18 23:00N 35°48' E 014°35'2 3.5
2018-Apr-18 22:26N 35°47' E 014°37'2 4.2
2018-Apr-18 22:00N 35°48' E 014°40'2 3.1
2018-Apr-18 21:28N 35°48' E 014°41'0 0.8
2018-Apr-18 21:00N 35°48' E 014°42'3 6.0
2018-Apr-18 20:28N 35°51' E 014°42'0 0.2
2018-Apr-18 20:00N 35°51' E 014°42'0 0.1
2018-Apr-18 19:27N 35°51' E 014°42'0 0.0
2018-Apr-18 18:51N 35°51' E 014°42'0 0.0
2018-Apr-18 18:30N 35°51' E 014°42'0 0.0
2018-Apr-18 17:40N 35°51' E 014°42'0 0.0
2018-Apr-18 17:30N 35°51' E 014°42'0 0.1
2018-Apr-18 17:00N 35°51' E 014°42'0 0.0
2018-Apr-18 16:30N 35°51' E 014°42'0 0.0
2018-Apr-18 16:00N 35°51' E 014°42'0 0.0
2018-Apr-18 15:28N 35°51' E 014°42'0 0.0
2018-Apr-18 14:57N 35°51' E 014°42'0 0.0
2018-Apr-18 14:21N 35°51' E 014°42'0 0.0
2018-Apr-18 14:00N 35°51' E 014°42'0 0.0
2018-Apr-18 13:30N 35°51' E 014°42'0 0.0
2018-Apr-18 12:57N 35°51' E 014°42'0 0.1
2018-Apr-18 12:29N 35°51' E 014°42'0 0.1
2018-Apr-18 12:00N 35°51' E 014°42'0 0.0
2018-Apr-18 11:25N 35°51' E 014°42'0 0.0
2018-Apr-18 11:00N 35°51' E 014°42'0 0.0
2018-Apr-18 10:28N 35°51' E 014°42'0 0.0
2018-Apr-18 10:00N 35°51' E 014°42'0 0.1
2018-Apr-18 09:30N 35°51' E 014°42'0 0.1
2018-Apr-18 08:57N 35°51' E 014°42'0 0.0
2018-Apr-18 08:27N 35°51' E 014°42'0 0.1
2018-Apr-18 08:00N 35°51' E 014°42'0 0.0
2018-Apr-18 07:30N 35°51' E 014°42'0 0.0
2018-Apr-18 07:00N 35°51' E 014°42'0 0.1
2018-Apr-18 06:30N 35°51' E 014°42'0 0.0
2018-Apr-18 05:51N 35°51' E 014°42'0 0.1
2018-Apr-18 05:30N 35°51' E 014°42'0 0.0
2018-Apr-18 04:55N 35°51' E 014°42'0 0.0
2018-Apr-18 04:30N 35°51' E 014°42'0 0.0
2018-Apr-18 03:58N 35°51' E 014°42'0 0.0
2018-Apr-18 03:27N 35°51' E 014°42'0 0.1
2018-Apr-18 03:00N 35°51' E 014°43'0 0.0
2018-Apr-18 02:27N 35°51' E 014°43'0 0.0
2018-Apr-18 01:58N 35°51' E 014°42'0 0.0
2018-Apr-18 01:28N 35°51' E 014°43'0 0.0
2018-Apr-18 00:57N 35°51' E 014°43'0 0.0
2018-Apr-18 00:27N 35°51' E 014°43'0 0.0
2018-Apr-18 00:00N 35°51' E 014°42'0 0.0
2018-Apr-17 23:30N 35°51' E 014°42'0 0.0
2018-Apr-17 22:58N 35°51' E 014°43'0 0.0
2018-Apr-17 22:28N 35°51' E 014°43'0 0.0
2018-Apr-17 21:57N 35°51' E 014°43'0 0.0
2018-Apr-17 21:25N 35°51' E 014°43'0 0.0
2018-Apr-17 20:45N 35°51' E 014°42'0 0.0
2018-Apr-17 20:30N 35°51' E 014°43'0 0.0
2018-Apr-17 19:58N 35°51' E 014°42'0 0.0
2018-Apr-17 19:30N 35°51' E 014°42'0 0.0
2018-Apr-17 18:12N 35°51' E 014°42'0 0.0
2018-Apr-17 18:00N 35°51' E 014°42'0 0.0
2018-Apr-17 17:27N 35°51' E 014°42'0 0.0
2018-Apr-17 17:00N 35°51' E 014°42'0 0.0
2018-Apr-17 16:24N 35°51' E 014°42'0 0.1
2018-Apr-17 15:57N 35°51' E 014°42'0 0.1
2018-Apr-17 15:30N 35°51' E 014°42'0 0.0
2018-Apr-17 14:54N 35°51' E 014°42'0 0.0
2018-Apr-17 14:30N 35°51' E 014°42'0 0.0
2018-Apr-17 14:00N 35°51' E 014°42'0 0.0
2018-Apr-17 13:30N 35°51' E 014°42'0 0.0
2018-Apr-17 13:00N 35°51' E 014°42'0 0.0
2018-Apr-17 12:30N 35°51' E 014°42'0 0.0
2018-Apr-17 12:00N 35°51' E 014°42'0 0.0
2018-Apr-17 11:30N 35°51' E 014°43'0 0.0
2018-Apr-17 11:00N 35°51' E 014°43'0 0.0
2018-Apr-17 10:30N 35°51' E 014°42'0 0.0
2018-Apr-17 10:00N 35°51' E 014°42'0 0.0
2018-Apr-17 09:30N 35°51' E 014°42'0 0.0
2018-Apr-17 09:00N 35°51' E 014°43'0 0.0
2018-Apr-17 08:30N 35°51' E 014°43'0 0.0
2018-Apr-17 07:58N 35°51' E 014°43'0 0.0
2018-Apr-17 07:30N 35°51' E 014°43'0 0.1
2018-Apr-17 06:59N 35°51' E 014°43'0 0.1
2018-Apr-17 06:30N 35°51' E 014°43'0 0.0
2018-Apr-17 06:00N 35°51' E 014°43'0 0.0
2018-Apr-17 05:30N 35°51' E 014°42'0 0.0
2018-Apr-17 04:57N 35°51' E 014°43'0 0.1
2018-Apr-17 04:30N 35°51' E 014°42'0 0.1
2018-Apr-17 04:00N 35°51' E 014°43'0 0.0
2018-Apr-17 03:30N 35°51' E 014°43'  
Track history (hours):
 
Tides and Currents Weather Stations Pressure Air Temp Water Temp Dewpoint Dewpoint Depression Visibility Wind Speed Wind Dir Waves Ship Positions

Oued Ziz

Last reported at 2018-Apr-27 02:59 UTC. Time now 2018-Apr-27 05:06 UTC.
Position N 43°06' E 007°02'.

Length 115 m; draft 5.3 m.

Type: Cargo ship. MMSI: 242006000.

Date/timePositionNaut miles runAvg speedWind from/ knotsBaromVisibWave heightAir tempDewpointWater temp
2018-Apr-27 02:59N 43°06' E 007°02'613.5
2018-Apr-27 02:30N 43°08' E 007°10'1013.4
2018-Apr-27 01:45N 43°11' E 007°23'413.3
2018-Apr-27 01:27N 43°12' E 007°28'1013.3
2018-Apr-27 00:43N 43°15' E 007°41'3113.0
2018-Apr-26 22:22N 43°28' E 008°19'513.2
2018-Apr-26 22:00N 43°30' E 008°26'813.4
2018-Apr-26 21:27N 43°33' E 008°35'613.5
2018-Apr-26 21:00N 43°35' E 008°43'713.5
2018-Apr-26 20:30N 43°38' E 008°51'713.3
2018-Apr-26 20:00N 43°41' E 008°59'713.1
2018-Apr-26 19:30N 43°44' E 009°07'612.7
2018-Apr-26 19:00N 43°47' E 009°15'612.6
2018-Apr-26 18:30N 43°50' E 009°23'612.6
2018-Apr-26 18:00N 43°52' E 009°31'612.6
2018-Apr-26 17:30N 43°55' E 009°38'713.0
2018-Apr-26 17:00N 43°58' E 009°46'611.2
2018-Apr-26 16:30N 44°02' E 009°52'5 9.0
2018-Apr-26 16:00N 44°07' E 009°51'0 0.1
2018-Apr-26 15:30N 44°07' E 009°51'0 0.0
2018-Apr-26 14:57N 44°07' E 009°51'0 0.0
2018-Apr-26 14:27N 44°07' E 009°51'0 0.0
2018-Apr-26 14:00N 44°07' E 009°51'0 0.0
2018-Apr-26 13:27N 44°07' E 009°51'0 0.0
2018-Apr-26 13:00N 44°07' E 009°51'0 0.0
2018-Apr-26 12:30N 44°07' E 009°51'0 0.0
2018-Apr-26 12:00N 44°07' E 009°51'0 0.0
2018-Apr-26 11:30N 44°07' E 009°51'0 0.0
2018-Apr-26 11:00N 44°07' E 009°51'0 0.0
2018-Apr-26 10:30N 44°07' E 009°51'0 0.0
2018-Apr-26 10:00N 44°07' E 009°51'0 0.0
2018-Apr-26 09:30N 44°07' E 009°51'0 0.1
2018-Apr-26 09:00N 44°06' E 009°51'3 6.0
2018-Apr-26 08:30N 44°04' E 009°52'510.6
2018-Apr-26 08:00N 43°59' E 009°56'612.4
2018-Apr-26 07:30N 43°55' E 009°51'612.5
2018-Apr-26 07:00N 43°50' E 009°45'612.9
2018-Apr-26 06:30N 43°45' E 009°39'613.0
2018-Apr-26 06:00N 43°40' E 009°33'713.0
2018-Apr-26 05:30N 43°35' E 009°27'613.1
2018-Apr-26 05:00N 43°30' E 009°21'713.2
2018-Apr-26 04:30N 43°25' E 009°16'713.1
2018-Apr-26 04:00N 43°20' E 009°10'713.4
2018-Apr-26 03:30N 43°15' E 009°04'  
2018-Apr-20 08:52N 36°14' E 013°31'412.2
2018-Apr-20 08:30N 36°11' E 013°35'713.1
2018-Apr-20 08:00N 36°07' E 013°42'612.4
2018-Apr-20 07:30N 36°04' E 013°48'712.7
2018-Apr-20 06:59N 36°00' E 013°55'612.6
2018-Apr-20 06:30N 35°57' E 014°01'612.6
2018-Apr-20 06:00N 35°53' E 014°08'712.9
2018-Apr-20 05:28N 35°49' E 014°15'511.9
2018-Apr-20 05:00N 35°46' E 014°20'510.9
2018-Apr-20 04:30N 35°45' E 014°27'7 0.2
2018-Apr-18 23:16N 35°49' E 014°33'2 6.7
2018-Apr-18 23:00N 35°48' E 014°35'2 3.5
2018-Apr-18 22:26N 35°47' E 014°37'2 4.2
2018-Apr-18 22:00N 35°48' E 014°40'2 3.1
2018-Apr-18 21:28N 35°48' E 014°41'0 0.8
2018-Apr-18 21:00N 35°48' E 014°42'3 6.0
2018-Apr-18 20:28N 35°51' E 014°42'0 0.2
2018-Apr-18 20:00N 35°51' E 014°42'0 0.1
2018-Apr-18 19:27N 35°51' E 014°42'0 0.0
2018-Apr-18 18:51N 35°51' E 014°42'0 0.0
2018-Apr-18 18:30N 35°51' E 014°42'0 0.0
2018-Apr-18 17:40N 35°51' E 014°42'0 0.0
2018-Apr-18 17:30N 35°51' E 014°42'0 0.1
2018-Apr-18 17:00N 35°51' E 014°42'0 0.0
2018-Apr-18 16:30N 35°51' E 014°42'0 0.0
2018-Apr-18 16:00N 35°51' E 014°42'0 0.0
2018-Apr-18 15:28N 35°51' E 014°42'0 0.0
2018-Apr-18 14:57N 35°51' E 014°42'0 0.0
2018-Apr-18 14:21N 35°51' E 014°42'0 0.0
2018-Apr-18 14:00N 35°51' E 014°42'0 0.0
2018-Apr-18 13:30N 35°51' E 014°42'0 0.0
2018-Apr-18 12:57N 35°51' E 014°42'0 0.1
2018-Apr-18 12:29N 35°51' E 014°42'0 0.1
2018-Apr-18 12:00N 35°51' E 014°42'0 0.0
2018-Apr-18 11:25N 35°51' E 014°42'0 0.0
2018-Apr-18 11:00N 35°51' E 014°42'0 0.0
2018-Apr-18 10:28N 35°51' E 014°42'0 0.0
2018-Apr-18 10:00N 35°51' E 014°42'0 0.1
2018-Apr-18 09:30N 35°51' E 014°42'0 0.1
2018-Apr-18 08:57N 35°51' E 014°42'0 0.0
2018-Apr-18 08:27N 35°51' E 014°42'0 0.1
2018-Apr-18 08:00N 35°51' E 014°42'0 0.0
2018-Apr-18 07:30N 35°51' E 014°42'0 0.0
2018-Apr-18 07:00N 35°51' E 014°42'0 0.1
2018-Apr-18 06:30N 35°51' E 014°42'0 0.0
2018-Apr-18 05:51N 35°51' E 014°42'0 0.1
2018-Apr-18 05:30N 35°51' E 014°42'0 0.0
2018-Apr-18 04:55N 35°51' E 014°42'0 0.0
2018-Apr-18 04:30N 35°51' E 014°42'0 0.0
2018-Apr-18 03:58N 35°51' E 014°42'0 0.0
2018-Apr-18 03:27N 35°51' E 014°42'0 0.1
2018-Apr-18 03:00N 35°51' E 014°43'0 0.0
2018-Apr-18 02:27N 35°51' E 014°43'0 0.0
2018-Apr-18 01:58N 35°51' E 014°42'0 0.0
2018-Apr-18 01:28N 35°51' E 014°43'0 0.0
2018-Apr-18 00:57N 35°51' E 014°43'0 0.0
2018-Apr-18 00:27N 35°51' E 014°43'0 0.0
2018-Apr-18 00:00N 35°51' E 014°42'0 0.0
2018-Apr-17 23:30N 35°51' E 014°42'0 0.0
2018-Apr-17 22:58N 35°51' E 014°43'0 0.0
2018-Apr-17 22:28N 35°51' E 014°43'0 0.0
2018-Apr-17 21:57N 35°51' E 014°43'0 0.0
2018-Apr-17 21:25N 35°51' E 014°43'0 0.0
2018-Apr-17 20:45N 35°51' E 014°42'0 0.0
2018-Apr-17 20:30N 35°51' E 014°43'0 0.0
2018-Apr-17 19:58N 35°51' E 014°42'0 0.0
2018-Apr-17 19:30N 35°51' E 014°42'0 0.0
2018-Apr-17 18:12N 35°51' E 014°42'0 0.0
2018-Apr-17 18:00N 35°51' E 014°42'0 0.0
2018-Apr-17 17:27N 35°51' E 014°42'0 0.0
2018-Apr-17 17:00N 35°51' E 014°42'0 0.0
2018-Apr-17 16:24N 35°51' E 014°42'0 0.1
2018-Apr-17 15:57N 35°51' E 014°42'0 0.1
2018-Apr-17 15:30N 35°51' E 014°42'0 0.0
2018-Apr-17 14:54N 35°51' E 014°42'0 0.0
2018-Apr-17 14:30N 35°51' E 014°42'0 0.0
2018-Apr-17 14:00N 35°51' E 014°42'0 0.0
2018-Apr-17 13:30N 35°51' E 014°42'0 0.0
2018-Apr-17 13:00N 35°51' E 014°42'0 0.0
2018-Apr-17 12:30N 35°51' E 014°42'0 0.0
2018-Apr-17 12:00N 35°51' E 014°42'0 0.0
2018-Apr-17 11:30N 35°51' E 014°43'0 0.0
2018-Apr-17 11:00N 35°51' E 014°43'0 0.0
2018-Apr-17 10:30N 35°51' E 014°42'0 0.0
2018-Apr-17 10:00N 35°51' E 014°42'0 0.0
2018-Apr-17 09:30N 35°51' E 014°42'0 0.0
2018-Apr-17 09:00N 35°51' E 014°43'0 0.0
2018-Apr-17 08:30N 35°51' E 014°43'0 0.0
2018-Apr-17 07:58N 35°51' E 014°43'0 0.0
2018-Apr-17 07:30N 35°51' E 014°43'0 0.1
2018-Apr-17 06:59N 35°51' E 014°43'0 0.1
2018-Apr-17 06:30N 35°51' E 014°43'0 0.0
2018-Apr-17 06:00N 35°51' E 014°43'0 0.0
2018-Apr-17 05:30N 35°51' E 014°42'0 0.0
2018-Apr-17 04:57N 35°51' E 014°43'0 0.1
2018-Apr-17 04:30N 35°51' E 014°42'0 0.1
2018-Apr-17 04:00N 35°51' E 014°43'0 0.0
2018-Apr-17 03:30N 35°51' E 014°43'  

Dump ship's entire track history